Time;durP1;ratioP1;P1;durP2;ratioP2;P2;SDS_P1;SDS_P2;PMS_P1;PMS_P2;Temp;Humidity;BMP_temperature;BMP_pressure;BME280_temperature;BME280_humidity;BME280_pressure;Samples;Min_cycle;Max_cycle;Signal;HPM_P1;HPM_P2
2023/03/17 00:01:15;;;;;;;4.95;2.83;;;1.70;99.90;;;;;;4967881;28;20127;-78
2023/03/17 00:03:43;;;;;;;4.70;2.40;;;1.70;99.90;;;;;;4967762;28;20050;-75
2023/03/17 00:06:20;;;;;;;3.40;2.75;;;1.60;99.90;;;;;;4979816;28;20361;-79
2023/03/17 00:08:46;;;;;;;5.63;2.35;;;1.60;99.90;;;;;;4980404;28;20069;-79
2023/03/17 00:11:14;;;;;;;3.45;2.38;;;1.70;99.90;;;;;;4973256;28;20032;-78
2023/03/17 00:13:40;;;;;;;5.38;2.63;;;1.70;99.90;;;;;;4982796;28;20038;-77
2023/03/17 00:16:15;;;;;;;4.22;2.63;;;1.80;99.90;;;;;;4980412;28;20077;-76
2023/03/17 00:18:42;;;;;;;5.72;2.80;;;1.80;99.90;;;;;;4978590;28;20031;-76
2023/03/17 00:21:14;;;;;;;3.80;2.75;;;1.70;99.90;;;;;;4979013;28;20475;-77
2023/03/17 00:23:48;;;;;;;5.18;3.00;;;1.70;99.90;;;;;;4978244;28;20499;-78
2023/03/17 00:26:14;;;;;;;4.28;2.67;;;1.70;99.90;;;;;;4954892;28;20074;-75
2023/03/17 00:28:41;;;;;;;4.47;2.60;;;1.70;99.90;;;;;;4968375;28;20034;-77
2023/03/17 00:31:16;;;;;;;2.80;2.00;;;1.70;99.90;;;;;;4969031;28;20026;-78
2023/03/17 00:33:46;;;;;;;5.47;2.55;;;1.80;99.90;;;;;;4973656;28;20026;-77
2023/03/17 00:36:30;;;;;;;5.72;3.03;;;1.70;99.90;;;;;;4932007;28;20063;-77
2023/03/17 00:38:57;;;;;;;4.15;2.58;;;1.70;99.90;;;;;;4978735;28;20030;-76
2023/03/17 00:41:24;;;;;;;4.40;2.33;;;1.80;99.90;;;;;;4962945;28;20031;-78
2023/03/17 00:43:50;;;;;;;5.00;2.50;;;1.90;99.90;;;;;;4987692;28;20410;-76
2023/03/17 00:46:22;;;;;;;4.63;2.47;;;1.90;99.90;;;;;;4968592;28;20054;-77
2023/03/17 00:48:48;;;;;;;4.35;2.22;;;2.00;99.90;;;;;;4960883;28;20019;-77
2023/03/17 00:51:16;;;;;;;3.70;2.17;;;2.00;99.90;;;;;;4981671;28;20030;-78
2023/03/17 00:53:43;;;;;;;5.47;2.40;;;2.00;99.90;;;;;;4980214;28;20035;-77
2023/03/17 00:56:20;;;;;;;4.90;2.17;;;2.10;99.90;;;;;;4946478;29;20399;-77
2023/03/17 00:58:47;;;;;;;5.53;2.47;;;2.00;99.90;;;;;;4975423;28;20455;-77
2023/03/17 01:01:14;;;;;;;3.28;2.55;;;2.00;99.90;;;;;;4966073;28;20026;-77
2023/03/17 01:03:40;;;;;;;6.22;2.83;;;1.90;99.90;;;;;;4975600;28;20031;-77
2023/03/17 01:06:09;;;;;;;5.18;2.67;;;1.90;99.90;;;;;;4968954;28;20027;-77
2023/03/17 01:08:36;;;;;;;2.90;2.25;;;1.80;99.90;;;;;;4956450;28;20403;-77
2023/03/17 01:11:01;;;;;;;5.75;2.67;;;1.80;99.90;;;;;;4974340;28;20023;-77
2023/03/17 01:13:28;;;;;;;3.50;2.20;;;1.70;99.90;;;;;;4958216;28;20129;-77
2023/03/17 01:15:55;;;;;;;4.57;3.00;;;1.80;99.90;;;;;;4977685;28;20039;-77
2023/03/17 01:18:21;;;;;;;6.20;2.38;;;1.80;99.90;;;;;;4985384;28;20434;-77
2023/03/17 01:20:48;;;;;;;4.28;2.40;;;1.80;99.90;;;;;;4953722;28;20034;-77
2023/03/17 01:23:15;;;;;;;3.92;2.40;;;1.80;99.90;;;;;;4963946;28;20114;-77
2023/03/17 01:25:42;;;;;;;5.65;2.33;;;1.80;99.90;;;;;;4955759;28;20043;-78
2023/03/17 01:28:18;;;;;;;4.30;2.47;;;1.80;99.90;;;;;;4972767;28;20035;-77
2023/03/17 01:30:45;;;;;;;4.00;2.00;;;1.70;99.90;;;;;;4959681;28;20431;-77
2023/03/17 01:33:13;;;;;;;5.35;2.42;;;1.70;99.90;;;;;;4978271;28;20082;-78
2023/03/17 01:35:40;;;;;;;6.60;1.88;;;1.70;99.90;;;;;;4974124;28;20475;-77
2023/03/17 01:38:07;;;;;;;5.30;2.40;;;1.80;99.90;;;;;;4968828;28;20034;-77
2023/03/17 01:40:36;;;;;;;2.00;1.60;;;1.80;99.90;;;;;;4968645;28;20516;-78
2023/03/17 01:43:05;;;;;;;4.07;2.03;;;1.90;99.90;;;;;;4969013;28;20070;-78
2023/03/17 01:46:05;;;;;;;3.30;2.03;;;1.90;99.90;;;;;;4973153;28;20030;-77
2023/03/17 01:48:37;;;;;;;3.47;2.03;;;2.00;99.90;;;;;;4981124;28;20034;-77
2023/03/17 01:51:05;;;;;;;2.65;1.90;;;2.00;99.90;;;;;;4972533;28;20038;-78
2023/03/17 01:53:32;;;;;;;3.30;2.17;;;2.10;99.90;;;;;;4970694;28;20077;-77
2023/03/17 01:55:58;;;;;;;2.80;1.88;;;2.10;99.90;;;;;;4964066;28;20034;-78
2023/03/17 01:58:25;;;;;;;3.42;2.20;;;2.10;99.90;;;;;;4964739;28;20039;-77
2023/03/17 02:00:51;;;;;;;3.22;2.20;;;2.20;99.90;;;;;;4943853;28;20038;-78
2023/03/17 02:03:17;;;;;;;5.72;1.98;;;2.20;99.90;;;;;;4960819;28;20034;-77
2023/03/17 02:05:45;;;;;;;4.05;2.10;;;2.20;99.90;;;;;;4961851;28;20507;-78
2023/03/17 02:08:13;;;;;;;4.00;1.80;;;2.20;99.90;;;;;;4967332;28;20516;-77
2023/03/17 02:10:40;;;;;;;6.30;1.90;;;2.20;99.90;;;;;;4973691;28;20057;-77
2023/03/17 02:13:09;;;;;;;6.57;2.28;;;2.20;99.90;;;;;;4970473;28;20023;-77
2023/03/17 02:15:49;;;;;;;4.38;1.88;;;2.20;99.90;;;;;;4974691;28;20027;-77
2023/03/17 02:18:20;;;;;;;3.15;2.03;;;2.30;99.90;;;;;;4967137;28;20061;-77
2023/03/17 02:20:46;;;;;;;3.90;2.10;;;2.20;99.90;;;;;;4973512;28;20042;-77
2023/03/17 02:23:17;;;;;;;4.50;2.08;;;2.20;99.90;;;;;;4963162;28;20567;-77
2023/03/17 02:25:46;;;;;;;3.85;2.08;;;2.20;99.90;;;;;;4970019;28;20031;-77
2023/03/17 02:28:24;;;;;;;6.15;2.42;;;2.20;99.90;;;;;;4979119;28;20110;-77
2023/03/17 02:30:51;;;;;;;5.03;2.17;;;2.20;99.90;;;;;;4972451;28;20031;-77
2023/03/17 02:33:17;;;;;;;4.50;2.00;;;2.20;99.90;;;;;;4983315;28;20406;-78
2023/03/17 02:35:44;;;;;;;4.35;1.90;;;2.10;99.90;;;;;;4958741;28;20070;-78
2023/03/17 02:38:09;;;;;;;6.35;1.80;;;2.10;99.90;;;;;;4983914;28;20518;-77
2023/03/17 02:40:35;;;;;;;4.57;1.65;;;2.10;99.90;;;;;;4949828;28;20145;-77
2023/03/17 02:43:01;;;;;;;2.95;1.67;;;2.10;99.90;;;;;;4955589;28;20031;-78
2023/03/17 02:45:27;;;;;;;4.93;1.98;;;2.10;99.90;;;;;;4965539;28;20041;-77
2023/03/17 02:47:54;;;;;;;4.13;2.33;;;2.10;99.90;;;;;;4954608;28;20081;-77
2023/03/17 02:50:23;;;;;;;2.80;1.83;;;2.10;99.90;;;;;;4976696;28;20026;-76
2023/03/17 02:52:50;;;;;;;4.35;1.73;;;2.10;99.90;;;;;;4951314;28;20401;-76
2023/03/17 02:55:16;;;;;;;4.45;2.25;;;2.10;99.90;;;;;;4972263;28;20030;-75
2023/03/17 02:57:42;;;;;;;4.53;2.00;;;2.10;99.90;;;;;;4980051;28;20141;-77
2023/03/17 03:00:09;;;;;;;3.53;2.00;;;2.00;99.90;;;;;;4967723;28;20125;-75
2023/03/17 03:02:36;;;;;;;2.13;1.63;;;2.10;99.90;;;;;;4978124;28;20027;-77
2023/03/17 03:05:04;;;;;;;2.35;1.63;;;2.00;99.90;;;;;;4953785;28;20065;-77
2023/03/17 03:07:31;;;;;;;4.30;1.83;;;2.00;99.90;;;;;;4958073;28;20031;-78
2023/03/17 03:09:57;;;;;;;4.53;2.65;;;1.90;99.90;;;;;;4974834;28;20701;-77
2023/03/17 03:12:24;;;;;;;2.47;1.63;;;1.90;99.90;;;;;;4974435;28;20052;-77
2023/03/17 03:14:50;;;;;;;2.65;1.80;;;1.90;99.90;;;;;;4975266;28;20031;-77
2023/03/17 03:17:16;;;;;;;3.00;1.92;;;1.90;99.90;;;;;;4977712;28;20041;-77
2023/03/17 03:19:42;;;;;;;5.53;2.00;;;1.90;99.90;;;;;;4980309;28;20031;-78
2023/03/17 03:22:08;;;;;;;3.50;2.10;;;1.90;99.90;;;;;;4963572;28;20105;-77
2023/03/17 03:24:34;;;;;;;2.55;1.73;;;1.90;99.90;;;;;;4980431;28;20049;-77
2023/03/17 03:27:00;;;;;;;3.47;1.60;;;1.90;99.90;;;;;;4961138;28;20054;-78
2023/03/17 03:29:26;;;;;;;4.13;2.00;;;1.90;99.90;;;;;;4977303;28;20399;-77
2023/03/17 03:31:52;;;;;;;2.83;2.05;;;1.90;99.90;;;;;;4973435;28;20030;-78
2023/03/17 03:34:18;;;;;;;2.08;1.50;;;2.00;99.90;;;;;;4969616;28;20097;-77
2023/03/17 03:36:44;;;;;;;3.05;1.85;;;2.00;99.90;;;;;;4974789;28;20053;-78
2023/03/17 03:39:09;;;;;;;1.90;1.60;;;2.00;99.90;;;;;;4979683;28;20043;-78
2023/03/17 03:41:35;;;;;;;2.58;1.70;;;2.00;99.90;;;;;;4973010;28;20059;-78
2023/03/17 03:44:01;;;;;;;2.33;1.50;;;2.00;99.90;;;;;;4979628;28;20498;-77
2023/03/17 03:46:27;;;;;;;2.97;1.75;;;2.00;99.90;;;;;;4973937;28;20495;-78
2023/03/17 03:48:54;;;;;;;4.20;1.75;;;2.00;99.90;;;;;;4978921;28;20066;-78
2023/03/17 03:51:20;;;;;;;3.05;1.85;;;2.00;99.90;;;;;;4971797;28;20114;-78
2023/03/17 03:53:47;;;;;;;2.45;1.65;;;2.10;99.90;;;;;;4977701;28;20461;-77
2023/03/17 03:56:13;;;;;;;4.40;1.98;;;2.00;99.90;;;;;;4981412;28;20043;-78
2023/03/17 03:58:40;;;;;;;3.00;1.90;;;2.10;99.90;;;;;;4971215;28;20086;-77
2023/03/17 04:01:08;;;;;;;2.67;1.70;;;2.00;99.90;;;;;;4976555;28;20023;-77
2023/03/17 04:03:35;;;;;;;3.03;1.88;;;2.00;99.90;;;;;;4976860;28;20039;-77
2023/03/17 04:06:02;;;;;;;3.58;2.33;;;2.00;99.90;;;;;;4968883;28;20042;-77
2023/03/17 04:08:28;;;;;;;3.78;1.75;;;2.00;99.90;;;;;;4978776;28;20432;-77
2023/03/17 04:10:54;;;;;;;3.42;2.05;;;2.00;99.90;;;;;;4975606;28;20026;-77
2023/03/17 04:13:20;;;;;;;3.60;1.63;;;1.90;99.90;;;;;;4968009;28;20395;-77
2023/03/17 04:15:46;;;;;;;2.38;1.95;;;2.00;99.90;;;;;;4976728;28;20106;-77
2023/03/17 04:18:11;;;;;;;7.20;1.92;;;2.00;99.90;;;;;;4982479;28;20074;-77
2023/03/17 04:20:37;;;;;;;3.97;2.00;;;2.00;99.90;;;;;;4973917;28;20038;-77
2023/03/17 04:23:03;;;;;;;3.65;2.00;;;2.00;99.90;;;;;;4970332;28;20046;-77
2023/03/17 04:25:30;;;;;;;4.90;2.15;;;2.10;99.90;;;;;;4977023;28;20042;-77
2023/03/17 04:27:56;;;;;;;4.40;1.85;;;2.00;99.90;;;;;;4957021;28;20070;-77
2023/03/17 04:30:22;;;;;;;3.90;2.13;;;2.00;99.90;;;;;;4968219;28;20407;-77
2023/03/17 04:32:47;;;;;;;4.03;2.20;;;2.00;99.90;;;;;;4977236;28;20030;-77
2023/03/17 04:35:16;;;;;;;3.85;2.00;;;2.00;99.90;;;;;;4969455;28;20039;-77
2023/03/17 04:37:44;;;;;;;3.40;2.25;;;2.00;99.90;;;;;;4981144;28;20074;-77
2023/03/17 04:40:12;;;;;;;3.55;2.13;;;1.90;99.90;;;;;;4979536;28;20027;-77
2023/03/17 04:42:38;;;;;;;3.83;2.25;;;1.80;99.90;;;;;;4978062;28;20187;-77
2023/03/17 04:45:05;;;;;;;4.70;2.33;;;1.80;99.90;;;;;;4985101;28;20204;-77
2023/03/17 04:47:32;;;;;;;5.53;2.30;;;1.80;99.90;;;;;;4988588;28;20058;-78
2023/03/17 04:49:58;;;;;;;5.43;2.53;;;1.70;99.90;;;;;;4971057;28;20046;-77
2023/03/17 04:52:23;;;;;;;2.95;2.00;;;1.70;99.90;;;;;;4977564;28;20126;-77
2023/03/17 04:54:49;;;;;;;2.95;2.05;;;1.70;99.90;;;;;;4965597;28;20491;-78
2023/03/17 04:57:15;;;;;;;2.97;2.00;;;1.60;99.90;;;;;;4968248;28;20391;-78
2023/03/17 04:59:41;;;;;;;5.57;2.80;;;1.60;99.90;;;;;;4967432;28;20049;-79
2023/03/17 05:02:07;;;;;;;3.38;1.90;;;1.60;99.90;;;;;;4972507;28;20126;-77
2023/03/17 05:04:33;;;;;;;4.60;2.40;;;1.60;99.90;;;;;;4981478;28;20034;-78
2023/03/17 05:06:59;;;;;;;3.92;2.08;;;1.60;99.90;;;;;;4966133;28;20086;-78
2023/03/17 05:09:27;;;;;;;3.00;1.92;;;1.60;99.90;;;;;;4988943;28;20126;-79
2023/03/17 05:11:53;;;;;;;5.22;2.38;;;1.60;99.90;;;;;;4978946;28;20113;-77
2023/03/17 05:14:19;;;;;;;3.28;2.28;;;1.60;99.90;;;;;;4955937;28;20034;-78
2023/03/17 05:16:49;;;;;;;3.95;1.95;;;1.60;99.90;;;;;;4983253;28;20031;-78
2023/03/17 05:19:15;;;;;;;5.22;2.08;;;1.60;99.90;;;;;;4969010;28;20033;-78
2023/03/17 05:21:41;;;;;;;3.28;2.30;;;1.60;99.90;;;;;;4982612;28;20094;-76
2023/03/17 05:24:08;;;;;;;5.03;2.67;;;1.70;99.90;;;;;;4969960;28;20030;-78
2023/03/17 05:26:34;;;;;;;4.95;2.75;;;1.60;99.90;;;;;;4980739;28;20058;-77
2023/03/17 05:28:59;;;;;;;4.07;2.25;;;1.60;99.90;;;;;;4975545;28;20034;-76
2023/03/17 05:31:25;;;;;;;4.32;2.22;;;1.60;99.90;;;;;;4978943;28;20061;-78
2023/03/17 05:33:51;;;;;;;4.00;2.22;;;1.60;99.90;;;;;;4970844;28;20515;-78
2023/03/17 05:36:17;;;;;;;5.65;2.38;;;1.70;99.90;;;;;;4983795;28;20042;-77
2023/03/17 05:38:43;;;;;;;6.45;2.78;;;1.70;99.90;;;;;;4966322;28;20066;-78
2023/03/17 05:41:09;;;;;;;3.83;2.25;;;1.70;99.90;;;;;;4972825;28;20058;-78
2023/03/17 05:43:36;;;;;;;4.65;2.33;;;1.70;99.90;;;;;;4974194;28;20038;-77
2023/03/17 05:46:03;;;;;;;4.63;2.40;;;1.70;99.90;;;;;;4958342;28;20039;-79
2023/03/17 05:48:29;;;;;;;4.28;2.33;;;1.60;99.90;;;;;;4982915;28;20042;-78
2023/03/17 05:50:55;;;;;;;4.78;2.55;;;1.60;99.90;;;;;;4974882;28;20027;-77
2023/03/17 05:53:21;;;;;;;5.55;2.45;;;1.70;99.90;;;;;;4978478;28;20539;-77
2023/03/17 05:55:47;;;;;;;5.30;2.47;;;1.70;99.90;;;;;;4970184;28;20045;-78
2023/03/17 05:58:14;;;;;;;4.22;2.38;;;1.70;99.90;;;;;;4973873;28;20031;-77
2023/03/17 06:00:40;;;;;;;4.38;2.92;;;1.80;99.90;;;;;;4975230;28;20489;-78
2023/03/17 06:03:06;;;;;;;4.18;2.38;;;1.80;99.90;;;;;;4966133;28;20026;-77
2023/03/17 06:05:33;;;;;;;5.30;2.38;;;1.80;99.90;;;;;;4960979;28;20566;-78
2023/03/17 06:07:59;;;;;;;3.83;2.40;;;1.80;99.90;;;;;;4976560;28;20093;-77
2023/03/17 06:10:26;;;;;;;4.55;2.53;;;1.80;99.90;;;;;;4974314;28;20114;-77
2023/03/17 06:12:52;;;;;;;7.97;3.08;;;1.80;99.90;;;;;;4970500;28;20558;-77
2023/03/17 06:15:19;;;;;;;3.80;2.40;;;1.90;99.90;;;;;;4973555;28;20507;-77
2023/03/17 06:17:45;;;;;;;3.38;2.30;;;1.90;99.90;;;;;;4966679;28;20487;-77
2023/03/17 06:20:11;;;;;;;4.30;2.60;;;2.00;99.90;;;;;;4963104;28;20035;-77
2023/03/17 06:22:38;;;;;;;4.72;2.70;;;2.00;99.90;;;;;;4971866;28;20043;-77
2023/03/17 06:25:04;;;;;;;4.70;2.60;;;2.00;99.90;;;;;;4978474;28;20035;-78
2023/03/17 06:27:31;;;;;;;6.78;2.80;;;2.10;99.90;;;;;;4986199;28;20034;-76
2023/03/17 06:29:59;;;;;;;6.60;2.35;;;2.10;99.90;;;;;;4989139;28;20034;-77
2023/03/17 06:32:25;;;;;;;5.95;2.13;;;2.20;99.90;;;;;;4980938;28;20125;-76
2023/03/17 06:34:52;;;;;;;4.18;2.97;;;2.40;99.90;;;;;;4980947;28;20381;-77
2023/03/17 06:37:20;;;;;;;3.35;2.05;;;2.60;99.90;;;;;;4991057;28;20500;-77
2023/03/17 06:39:46;;;;;;;4.72;2.45;;;2.80;99.90;;;;;;4990680;28;20031;-78
2023/03/17 06:42:13;;;;;;;4.60;2.55;;;3.10;99.90;;;;;;4989241;28;20029;-78
2023/03/17 06:44:39;;;;;;;7.25;2.50;;;3.40;99.90;;;;;;4970572;28;20106;-77
2023/03/17 06:47:05;;;;;;;5.75;2.80;;;3.60;99.90;;;;;;4969601;28;20441;-77
2023/03/17 06:49:31;;;;;;;4.47;3.10;;;3.60;99.90;;;;;;4988530;28;20058;-79
2023/03/17 06:51:57;;;;;;;7.45;3.22;;;3.80;99.90;;;;;;4976969;28;20039;-78
2023/03/17 06:54:24;;;;;;;3.50;2.20;;;4.00;99.90;;;;;;4986913;28;20042;-78
2023/03/17 06:56:51;;;;;;;6.53;2.85;;;4.10;99.90;;;;;;4989557;28;20054;-78
2023/03/17 06:59:18;;;;;;;3.78;2.47;;;4.30;99.90;;;;;;4975525;28;20030;-77
2023/03/17 07:01:45;;;;;;;6.10;2.75;;;4.50;99.90;;;;;;4973315;28;20030;-80
2023/03/17 07:04:11;;;;;;;5.40;2.78;;;4.80;99.90;;;;;;4974106;28;20058;-80
2023/03/17 07:06:37;;;;;;;3.15;2.35;;;5.00;99.90;;;;;;4955960;28;20706;-80
2023/03/17 07:09:04;;;;;;;2.90;2.03;;;5.30;99.90;;;;;;4964524;28;20121;-77
2023/03/17 07:11:31;;;;;;;4.55;2.65;;;5.50;99.00;;;;;;4984660;28;20121;-78
2023/03/17 07:13:57;;;;;;;3.10;2.13;;;5.60;99.00;;;;;;4976088;28;20038;-80
2023/03/17 07:16:23;;;;;;;5.00;2.40;;;5.50;98.60;;;;;;4988604;28;20040;-78
2023/03/17 07:18:49;;;;;;;3.33;2.17;;;5.50;98.40;;;;;;4953325;28;20031;-78
2023/03/17 07:21:15;;;;;;;5.07;2.05;;;5.30;97.30;;;;;;4973071;28;20211;-78
2023/03/17 07:23:41;;;;;;;5.53;2.10;;;5.10;97.50;;;;;;4962960;28;20066;-79
2023/03/17 07:26:07;;;;;;;2.70;1.92;;;4.80;98.40;;;;;;4971777;28;20026;-79
2023/03/17 07:28:33;;;;;;;7.05;2.38;;;4.70;99.90;;;;;;4945351;28;20134;-79
2023/03/17 07:31:01;;;;;;;4.25;2.20;;;4.60;98.90;;;;;;4984042;28;20035;-80
2023/03/17 07:33:28;;;;;;;4.15;1.98;;;4.50;98.80;;;;;;4971053;28;20039;-77
2023/03/17 07:35:54;;;;;;;3.65;2.20;;;4.40;99.40;;;;;;4959504;28;20052;-78
2023/03/17 07:38:20;;;;;;;5.75;2.13;;;4.50;99.60;;;;;;4975170;28;20531;-78
2023/03/17 07:40:47;;;;;;;2.50;1.73;;;4.90;97.90;;;;;;4963038;28;20117;-81
2023/03/17 07:43:15;;;;;;;3.88;2.13;;;5.20;96.70;;;;;;4951966;28;20019;-78
2023/03/17 07:45:45;;;;;;;2.25;1.70;;;5.50;95.90;;;;;;4962390;28;20093;-78
2023/03/17 07:48:11;;;;;;;2.50;1.70;;;5.90;94.80;;;;;;4980152;28;20127;-77
2023/03/17 07:50:37;;;;;;;3.85;2.00;;;6.10;95.10;;;;;;4952234;28;20074;-77
2023/03/17 07:53:03;;;;;;;4.03;1.83;;;6.20;93.10;;;;;;4984105;28;20038;-79
2023/03/17 07:55:31;;;;;;;2.95;1.70;;;6.40;94.20;;;;;;4987216;28;20153;-78
2023/03/17 07:57:57;;;;;;;3.15;2.55;;;6.60;93.40;;;;;;4964175;28;20050;-78
2023/03/17 08:00:23;;;;;;;6.47;2.03;;;6.80;92.10;;;;;;4983373;28;20037;-78
2023/03/17 08:02:50;;;;;;;3.65;2.20;;;6.80;92.20;;;;;;4979368;28;20027;-81
2023/03/17 08:05:17;;;;;;;3.47;2.13;;;6.90;92.80;;;;;;4985830;28;20035;-79
2023/03/17 08:07:43;;;;;;;3.58;1.50;;;6.90;91.30;;;;;;4964097;28;20039;-78
2023/03/17 08:10:11;;;;;;;4.63;2.17;;;6.90;92.30;;;;;;4956284;28;20035;-77
2023/03/17 08:12:38;;;;;;;3.53;1.75;;;7.00;90.80;;;;;;4962044;28;20733;-78
2023/03/17 08:15:05;;;;;;;5.57;1.90;;;7.10;92.60;;;;;;4982604;28;20043;-78
2023/03/17 08:17:30;;;;;;;3.53;1.60;;;7.20;90.20;;;;;;4964351;28;20037;-79
2023/03/17 08:19:57;;;;;;;5.25;3.03;;;7.30;91.70;;;;;;4966953;28;20030;-78
2023/03/17 08:22:23;;;;;;;3.28;2.33;;;7.40;90.00;;;;;;4978138;28;20066;-78
2023/03/17 08:24:49;;;;;;;3.63;1.75;;;7.40;90.00;;;;;;4981546;28;20042;-78
2023/03/17 08:27:16;;;;;;;3.30;1.40;;;7.40;90.80;;;;;;4969226;28;20026;-78
2023/03/17 08:29:41;;;;;;;2.72;1.92;;;7.40;91.30;;;;;;4967580;28;20049;-78
2023/03/17 08:32:07;;;;;;;3.53;1.80;;;7.50;90.80;;;;;;4985425;28;20054;-78
2023/03/17 08:34:34;;;;;;;3.10;1.70;;;7.60;90.60;;;;;;4986506;28;20098;-77
2023/03/17 08:37:02;;;;;;;1.80;1.45;;;7.70;90.10;;;;;;4964056;28;20026;-81
2023/03/17 08:39:28;;;;;;;3.80;1.70;;;7.70;90.60;;;;;;4972683;28;20039;-78
2023/03/17 08:41:54;;;;;;;2.80;1.45;;;7.70;90.60;;;;;;4989305;28;20078;-79
2023/03/17 08:44:21;;;;;;;3.88;1.83;;;7.80;90.60;;;;;;4953641;28;20038;-80
2023/03/17 08:46:48;;;;;;;3.30;1.80;;;7.80;88.30;;;;;;4949956;28;20090;-80
2023/03/17 08:49:15;;;;;;;2.78;1.70;;;7.90;91.80;;;;;;4950272;28;20467;-76
2023/03/17 08:51:42;;;;;;;3.33;2.17;;;8.00;90.40;;;;;;4969448;28;20042;-79
2023/03/17 08:54:08;;;;;;;2.70;1.33;;;8.00;91.20;;;;;;4965676;28;20072;-77
2023/03/17 08:56:35;;;;;;;3.13;1.35;;;8.10;87.70;;;;;;4967610;28;20043;-78
2023/03/17 08:59:04;;;;;;;3.03;1.50;;;8.20;89.80;;;;;;4986863;28;20031;-80
2023/03/17 09:01:30;;;;;;;1.92;1.35;;;8.30;91.60;;;;;;4981327;28;20034;-78
2023/03/17 09:03:56;;;;;;;2.15;1.40;;;8.50;89.80;;;;;;4965221;28;20042;-77
2023/03/17 09:06:22;;;;;;;15.35;1.92;;;8.50;90.20;;;;;;4987511;28;20035;-79
2023/03/17 09:08:53;;;;;;;4.50;2.38;;;8.60;85.90;;;;;;4979982;28;20073;-78
2023/03/17 09:11:22;;;;;;;3.58;1.70;;;8.60;89.60;;;;;;4980577;28;20045;-79
2023/03/17 09:13:49;;;;;;;3.15;1.92;;;8.60;88.90;;;;;;4983387;28;20490;-79
2023/03/17 09:16:17;;;;;;;2.88;1.88;;;8.60;88.20;;;;;;4968954;28;20395;-79
2023/03/17 09:18:45;;;;;;;2.15;1.67;;;8.70;90.80;;;;;;4975294;28;20543;-78
2023/03/17 09:21:12;;;;;;;3.80;2.15;;;8.80;90.00;;;;;;4977467;28;20463;-77
2023/03/17 09:23:39;;;;;;;6.00;1.77;;;8.90;85.30;;;;;;4959211;28;20064;-78
2023/03/17 09:26:04;;;;;;;2.33;1.52;;;9.00;81.70;;;;;;4977740;28;20076;-77
2023/03/17 09:28:30;;;;;;;2.63;1.58;;;9.00;85.60;;;;;;4985115;28;20031;-80
2023/03/17 09:31:01;;;;;;;3.58;1.60;;;9.10;85.40;;;;;;4985758;28;20041;-79
2023/03/17 09:33:27;;;;;;;2.90;1.65;;;9.20;84.30;;;;;;4984130;28;20042;-76
2023/03/17 09:35:55;;;;;;;3.22;1.30;;;9.20;83.80;;;;;;4975347;28;20403;-78
2023/03/17 09:38:22;;;;;;;2.58;1.52;;;9.20;81.70;;;;;;4969640;28;20437;-77
2023/03/17 09:40:59;;;;;;;2.60;1.50;;;9.30;80.80;;;;;;4972210;28;20475;-79
2023/03/17 09:43:37;;;;;;;4.22;1.80;;;9.30;83.70;;;;;;4971120;28;20377;-80
2023/03/17 09:46:32;;;;;;;7.15;1.63;;;9.30;82.40;;;;;;4982159;28;20070;-79
2023/03/17 09:49:02;;;;;;;3.90;1.90;;;9.30;88.20;;;;;;4984528;28;20510;-79
2023/03/17 09:51:31;;;;;;;3.33;1.40;;;9.40;85.60;;;;;;4965046;28;20026;-78
2023/03/17 09:54:18;;;;;;;2.83;1.65;;;9.50;86.80;;;;;;4964175;28;20042;-78
2023/03/17 09:56:50;;;;;;;4.57;1.92;;;9.60;85.80;;;;;;4959424;28;20484;-78
2023/03/17 09:59:35;;;;;;;3.13;1.55;;;9.60;81.60;;;;;;4969182;28;20554;-79
2023/03/17 10:02:01;;;;;;;2.03;1.30;;;9.70;84.10;;;;;;4975194;28;20411;-79
2023/03/17 10:04:27;;;;;;;2.42;1.80;;;9.70;83.10;;;;;;4982629;28;20466;-78
2023/03/17 10:07:05;;;;;;;2.92;1.92;;;9.90;86.00;;;;;;4971832;28;20065;-79
2023/03/17 10:09:36;;;;;;;3.85;1.80;;;9.90;81.20;;;;;;4966509;28;20077;-79
2023/03/17 10:12:11;;;;;;;2.80;1.63;;;10.00;83.40;;;;;;4984079;28;20643;-78
2023/03/17 10:15:05;;;;;;;2.60;1.20;;;10.10;86.70;;;;;;4979622;28;20086;-80
2023/03/17 10:17:35;;;;;;;2.53;1.45;;;10.30;84.30;;;;;;4973647;28;20054;-78
2023/03/17 10:20:11;;;;;;;2.55;1.70;;;10.30;81.00;;;;;;4985504;28;20109;-78
2023/03/17 10:22:51;;;;;;;5.05;1.35;;;10.40;82.90;;;;;;4964306;28;20121;-78
2023/03/17 10:25:21;;;;;;;4.75;1.38;;;10.60;80.30;;;;;;4958785;28;20043;-78
2023/03/17 10:27:56;;;;;;;2.05;1.15;;;10.70;81.60;;;;;;4962256;28;20053;-78
2023/03/17 10:30:22;;;;;;;1.90;1.23;;;10.90;83.00;;;;;;4976788;28;20101;-77
2023/03/17 10:32:50;;;;;;;4.07;1.50;;;10.90;78.90;;;;;;4981319;28;20127;-77
2023/03/17 10:35:17;;;;;;;4.07;1.60;;;10.90;78.40;;;;;;4964489;28;20142;-77
2023/03/17 10:37:45;;;;;;;2.30;1.23;;;10.90;77.60;;;;;;4977059;28;20023;-78
2023/03/17 10:40:24;;;;;;;1.20;1.10;;;11.00;77.20;;;;;;4970104;28;20026;-77
2023/03/17 10:42:59;;;;;;;1.70;1.10;;;11.10;80.20;;;;;;4978870;28;20612;-78
2023/03/17 10:45:33;;;;;;;2.45;1.30;;;11.30;78.90;;;;;;4981143;28;20046;-78
2023/03/17 10:48:01;;;;;;;2.28;1.25;;;11.30;80.60;;;;;;4979971;28;20101;-77
2023/03/17 10:50:33;;;;;;;2.58;1.50;;;11.30;76.50;;;;;;4977823;28;20040;-77
2023/03/17 10:53:06;;;;;;;1.92;1.30;;;11.30;77.50;;;;;;4976402;28;20030;-78
2023/03/17 10:55:48;;;;;;;2.30;1.20;;;11.30;79.20;;;;;;4967239;28;20034;-79
2023/03/17 10:58:37;;;;;;;1.95;1.27;;;11.40;81.70;;;;;;4955059;28;20142;-78
2023/03/17 11:01:18;;;;;;;6.85;1.27;;;11.50;76.10;;;;;;4977855;28;20031;-75
2023/03/17 11:03:45;;;;;;;3.58;1.20;;;11.40;74.20;;;;;;4988470;28;20063;-75
2023/03/17 11:06:14;;;;;;;4.22;1.17;;;11.40;75.00;;;;;;4989478;28;20026;-80
2023/03/17 11:08:47;;;;;;;2.50;1.08;;;11.40;79.70;;;;;;4971847;28;20041;-79
2023/03/17 11:11:33;;;;;;;2.78;1.15;;;11.60;73.50;;;;;;4983411;28;20571;-79
2023/03/17 11:14:03;;;;;;;2.47;1.23;;;11.70;78.50;;;;;;4968097;28;20438;-78
2023/03/17 11:16:33;;;;;;;2.30;0.98;;;11.90;73.60;;;;;;4956515;28;20109;-79
2023/03/17 11:19:02;;;;;;;2.75;1.35;;;12.00;75.70;;;;;;4981468;28;20041;-76
2023/03/17 11:21:45;;;;;;;1.20;1.00;;;12.00;75.50;;;;;;4987744;28;20026;-75
2023/03/17 11:24:31;;;;;;;2.13;1.52;;;12.00;75.50;;;;;;4984079;28;20543;-79
2023/03/17 11:27:20;;;;;;;;;;;12.00;74.90;;;;;;4976633;28;20487;-79
2023/03/17 11:30:00;;;;;;;2.63;1.33;;;12.00;75.60;;;;;;4968474;28;19981;-79
2023/03/17 11:32:42;;;;;;;2.03;1.20;;;12.10;76.70;;;;;;4965520;28;20035;-80
2023/03/17 11:35:26;;;;;;;2.75;1.40;;;12.30;75.10;;;;;;4957835;28;20840;-78
2023/03/17 11:38:13;;;;;;;2.55;1.20;;;12.50;75.00;;;;;;4977557;28;20094;-78
2023/03/17 11:41:03;;;;;;;1.65;1.10;;;12.60;75.00;;;;;;4975825;28;20383;-77
2023/03/17 11:43:32;;;;;;;3.53;1.20;;;12.80;74.10;;;;;;4972744;28;20061;-78
2023/03/17 11:46:04;;;;;;;1.67;0.90;;;12.90;71.40;;;;;;4970474;28;20065;-78
2023/03/17 11:48:42;;;;;;;2.70;1.35;;;13.00;72.70;;;;;;4966413;28;20034;-79
2023/03/17 11:51:32;;;;;;;1.27;0.90;;;13.10;71.90;;;;;;4970544;28;20537;-79
2023/03/17 11:54:02;;;;;;;2.03;1.35;;;13.10;71.10;;;;;;4979197;28;20026;-78
2023/03/17 11:56:55;;;;;;;2.15;1.30;;;13.20;70.60;;;;;;4963330;28;20031;-78
2023/03/17 11:59:36;;;;;;;1.90;1.13;;;13.30;70.10;;;;;;4963281;28;20122;-79
2023/03/17 12:02:18;;;;;;;3.13;1.30;;;13.30;66.60;;;;;;4959470;28;20027;-78
2023/03/17 12:04:56;;;;;;;1.88;1.17;;;13.40;69.60;;;;;;4971590;28;20404;-80
2023/03/17 12:07:45;;;;;;;1.48;1.02;;;13.30;71.10;;;;;;4969082;28;20045;-77
2023/03/17 12:10:24;;;;;;;1.48;1.20;;;13.40;70.80;;;;;;4975631;28;20050;-78
2023/03/17 12:13:34;;;;;;;2.05;1.38;;;13.40;72.20;;;;;;4978312;28;20499;-80
2023/03/17 12:16:05;;;;;;;2.30;1.35;;;13.40;69.40;;;;;;4917252;29;20581;-79
2023/03/17 12:18:41;;;;;;;3.10;1.00;;;13.40;69.80;;;;;;4972912;28;20050;-76
2023/03/17 12:21:35;;;;;;;5.55;1.20;;;13.30;68.30;;;;;;4982928;28;20034;-79
2023/03/17 12:24:33;;;;;;;1.40;0.93;;;13.30;71.00;;;;;;4989720;28;20034;-81
2023/03/17 12:27:09;;;;;;;1.73;1.00;;;13.20;70.60;;;;;;4981504;28;20093;-77
2023/03/17 12:29:35;;;;;;;2.88;1.48;;;13.20;67.70;;;;;;4971216;28;20487;-78
2023/03/17 12:32:07;;;;;;;2.38;1.30;;;13.30;68.80;;;;;;4967412;28;20082;-78
2023/03/17 12:34:54;;;;;;;6.82;1.70;;;13.40;69.50;;;;;;4963386;28;20027;-78
2023/03/17 12:37:21;;;;;;;1.98;1.85;;;13.40;71.10;;;;;;4979760;28;20113;-79
2023/03/17 12:40:05;;;;;;;2.38;1.60;;;13.60;71.30;;;;;;4979185;28;20027;-79
2023/03/17 12:42:51;;;;;;;1.98;1.83;;;13.80;68.50;;;;;;4969221;28;20046;-79
2023/03/17 12:45:29;;;;;;;2.85;1.50;;;13.90;66.80;;;;;;4979803;28;20053;-78
2023/03/17 12:48:20;;;;;;;2.80;1.27;;;14.00;65.50;;;;;;4974249;28;20034;-78
2023/03/17 12:51:11;;;;;;;1.83;1.25;;;14.10;66.80;;;;;;4970950;28;20031;-78
2023/03/17 12:53:48;;;;;;;2.75;1.58;;;14.20;68.60;;;;;;4978439;28;20031;-79
2023/03/17 12:56:14;;;;;;;1.00;0.90;;;14.40;67.50;;;;;;4958400;28;20037;-78
2023/03/17 12:58:45;;;;;;;1.45;1.00;;;14.50;64.80;;;;;;4962297;28;20027;-78
2023/03/17 13:01:23;;;;;;;5.35;1.25;;;14.50;64.00;;;;;;4972024;28;20027;-79
2023/03/17 13:04:34;;;;;;;3.13;1.20;;;14.60;64.70;;;;;;4977498;28;21575;-78
2023/03/17 13:07:15;;;;;;;2.72;1.00;;;14.60;64.30;;;;;;4978855;28;20034;-79
2023/03/17 13:09:46;;;;;;;2.70;1.23;;;14.70;67.40;;;;;;4980192;28;20076;-78